createdAt,value
2023-03-29T00:00:42.163Z,1.49
2023-03-29T00:03:19.143Z,1.46
2023-03-29T00:05:49.058Z,1.86
2023-03-29T00:08:18.583Z,1.48
2023-03-29T00:10:50.139Z,1.90
2023-03-29T00:13:19.405Z,1.53
2023-03-29T00:15:47.618Z,1.38
2023-03-29T00:18:16.417Z,1.31
2023-03-29T00:20:44.817Z,1.39
2023-03-29T00:23:14.625Z,1.69
2023-03-29T00:25:46.150Z,1.82
2023-03-29T00:28:22.578Z,1.32
2023-03-29T00:30:51.530Z,1.33
2023-03-29T00:33:20.946Z,1.48
2023-03-29T00:35:50.118Z,1.45
2023-03-29T00:38:20.205Z,1.68
2023-03-29T00:40:48.592Z,1.34
2023-03-29T00:43:17.208Z,1.25
2023-03-29T00:45:45.569Z,1.33
2023-03-29T00:48:17.194Z,1.58
2023-03-29T00:50:49.058Z,1.68
2023-03-29T00:53:21.910Z,1.70
2023-03-29T00:55:54.129Z,1.61
2023-03-29T00:58:26.427Z,1.52
2023-03-29T01:01:02.602Z,1.60
2023-03-29T01:03:33.446Z,1.46
2023-03-29T01:06:05.146Z,1.59
2023-03-29T01:08:38.818Z,1.59
2023-03-29T01:11:11.525Z,1.65
2023-03-29T01:13:44.821Z,1.56
2023-03-29T01:16:13.885Z,1.24
2023-03-29T01:18:43.051Z,1.05
2023-03-29T01:21:19.593Z,1.51
2023-03-29T01:24:10.894Z,1.68
2023-03-29T01:26:46.869Z,1.57
2023-03-29T01:29:18.899Z,1.47
2023-03-29T01:31:50.103Z,1.37
2023-03-29T01:34:25.628Z,1.48
2023-03-29T01:37:00.419Z,1.38
2023-03-29T01:39:29.036Z,0.90
2023-03-29T01:42:07.037Z,1.36
2023-03-29T01:44:43.093Z,1.33
2023-03-29T01:47:17.209Z,1.33
2023-03-29T01:49:51.028Z,1.37
2023-03-29T01:52:23.600Z,1.31
2023-03-29T01:54:55.551Z,1.33
2023-03-29T01:57:25.189Z,1.01
2023-03-29T01:59:56.495Z,1.21
2023-03-29T02:02:25.935Z,1.19
2023-03-29T02:04:56.213Z,1.05
2023-03-29T02:07:27.162Z,1.09
2023-03-29T02:09:55.679Z,1.61
2023-03-29T02:12:24.150Z,0.77
2023-03-29T02:14:52.787Z,0.72
2023-03-29T02:17:24.191Z,1.11
2023-03-29T02:19:55.918Z,1.07
2023-03-29T02:22:25.973Z,0.94
2023-03-29T02:24:56.796Z,0.93
2023-03-29T02:27:25.059Z,0.51
2023-03-29T02:29:53.665Z,0.64
2023-03-29T02:32:26.465Z,1.07
2023-03-29T02:34:59.028Z,0.95
2023-03-29T02:37:30.346Z,1.00
2023-03-29T02:40:00.234Z,0.80
2023-03-29T02:42:29.301Z,0.79
2023-03-29T02:45:00.616Z,0.97
2023-03-29T02:47:32.765Z,1.07
2023-03-29T02:50:01.539Z,0.72
2023-03-29T02:52:34.266Z,1.06
2023-03-29T02:55:04.201Z,0.93
2023-03-29T02:57:32.547Z,0.70
2023-03-29T03:00:01.609Z,0.93
2023-03-29T03:02:31.436Z,1.10
2023-03-29T03:05:00.205Z,0.77
2023-03-29T03:07:28.810Z,0.63
2023-03-29T03:09:57.881Z,0.81
2023-03-29T03:12:26.375Z,0.60
2023-03-29T03:14:54.951Z,0.66
2023-03-29T03:17:23.523Z,0.63
2023-03-29T03:19:53.955Z,1.01
2023-03-29T03:22:22.211Z,0.63
2023-03-29T03:24:50.735Z,0.74
2023-03-29T03:27:19.083Z,0.74
2023-03-29T03:29:48.705Z,0.83
2023-03-29T03:32:17.572Z,0.64
2023-03-29T03:34:46.083Z,0.76
2023-03-29T03:37:15.730Z,0.96
2023-03-29T03:39:44.396Z,0.66
2023-03-29T03:42:12.812Z,0.59
2023-03-29T03:44:42.005Z,0.66
2023-03-29T03:47:10.377Z,0.58
2023-03-29T03:49:38.940Z,0.61
2023-03-29T03:52:07.108Z,0.53
2023-03-29T03:54:37.180Z,0.86
2023-03-29T03:57:05.624Z,0.44
2023-03-29T03:59:34.361Z,0.44
2023-03-29T04:02:02.659Z,0.49
2023-03-29T04:04:31.489Z,0.46
2023-03-29T04:07:02.807Z,0.31
2023-03-29T04:09:31.642Z,0.50
2023-03-29T04:12:02.035Z,0.95
2023-03-29T04:14:32.280Z,0.52
2023-03-29T04:17:00.556Z,0.54
2023-03-29T04:19:29.097Z,0.58
2023-03-29T04:21:57.507Z,0.55
2023-03-29T04:24:26.174Z,0.54
2023-03-29T04:26:54.365Z,0.52
2023-03-29T04:29:24.231Z,0.97
2023-03-29T04:31:52.790Z,0.51
2023-03-29T04:34:21.676Z,0.53
2023-03-29T04:36:50.343Z,0.63
2023-03-29T04:39:19.150Z,0.55
2023-03-29T04:41:47.448Z,0.45
2023-03-29T04:44:16.351Z,0.49
2023-03-29T04:46:46.174Z,1.36
2023-03-29T04:49:14.655Z,1.45
2023-03-29T04:51:43.600Z,2.13
2023-03-29T04:54:12.145Z,2.54
2023-03-29T04:56:40.620Z,3.14
2023-03-29T04:59:11.043Z,3.68
2023-03-29T05:01:39.710Z,4.22
2023-03-29T05:04:12.559Z,5.22
2023-03-29T05:06:41.236Z,5.43
2023-03-29T05:09:10.746Z,5.91
2023-03-29T05:11:38.910Z,6.34
2023-03-29T05:14:09.368Z,6.85
2023-03-29T05:16:38.153Z,7.27
2023-03-29T05:19:06.860Z,7.76
2023-03-29T05:21:36.725Z,8.66
2023-03-29T05:24:06.237Z,8.76
2023-03-29T05:26:34.771Z,8.94
2023-03-29T05:29:04.558Z,9.42
2023-03-29T05:31:33.155Z,9.98
2023-03-29T05:34:02.474Z,10.50
2023-03-29T05:36:30.818Z,10.84
2023-03-29T05:39:02.048Z,11.70
2023-03-29T05:41:30.834Z,11.67
2023-03-29T05:43:59.580Z,12.06
2023-03-29T05:46:28.199Z,12.37
2023-03-29T05:48:56.886Z,12.98
2023-03-29T05:51:25.173Z,13.29
2023-03-29T05:53:53.864Z,13.57
2023-03-29T05:56:23.579Z,14.42
2023-03-29T05:58:56.188Z,14.90
2023-03-29T06:01:24.784Z,14.43
2023-03-29T06:03:53.798Z,14.61
2023-03-29T06:06:22.389Z,14.69
2023-03-29T06:08:51.013Z,15.04
2023-03-29T06:11:19.637Z,15.37
2023-03-29T06:13:49.779Z,15.91
2023-03-29T06:16:18.205Z,15.66
2023-03-29T06:18:48.024Z,15.95
2023-03-29T06:21:16.893Z,16.45
2023-03-29T06:23:45.469Z,16.90
2023-03-29T06:26:14.069Z,17.17
2023-03-29T06:28:45.512Z,17.66
2023-03-29T06:31:15.764Z,18.51
2023-03-29T06:33:44.470Z,18.79
2023-03-29T06:36:16.108Z,19.27
2023-03-29T06:38:46.096Z,19.57
2023-03-29T06:41:15.120Z,19.94
2023-03-29T06:43:43.653Z,20.36
2023-03-29T06:46:13.653Z,20.64
2023-03-29T06:48:43.845Z,21.31
2023-03-29T06:51:12.296Z,21.04
2023-03-29T06:53:41.264Z,20.89
2023-03-29T06:56:10.387Z,21.00
2023-03-29T06:58:39.225Z,20.99
2023-03-29T07:01:08.104Z,21.40
2023-03-29T07:03:36.751Z,21.84
2023-03-29T07:06:11.768Z,22.86
2023-03-29T07:08:43.753Z,23.16
2023-03-29T07:11:13.972Z,23.59
2023-03-29T07:13:43.183Z,23.88
2023-03-29T07:16:13.179Z,24.13
2023-03-29T07:18:42.998Z,24.62
2023-03-29T07:21:13.825Z,25.07
2023-03-29T07:23:42.601Z,24.37
2023-03-29T07:26:12.133Z,24.16
2023-03-29T07:28:40.684Z,23.75
2023-03-29T07:31:11.096Z,23.63
2023-03-29T07:33:40.921Z,23.48
2023-03-29T07:36:09.964Z,23.81
2023-03-29T07:38:39.947Z,24.30
2023-03-29T07:41:08.749Z,24.45
2023-03-29T07:43:37.296Z,24.87
2023-03-29T07:46:07.001Z,25.90
2023-03-29T07:48:37.227Z,25.84
2023-03-29T07:51:06.228Z,25.73
2023-03-29T07:53:35.100Z,25.64
2023-03-29T07:56:05.650Z,26.01
2023-03-29T07:58:34.218Z,25.65
2023-03-29T08:01:02.710Z,25.86
2023-03-29T08:03:31.832Z,25.74
2023-03-29T08:06:03.048Z,26.74
2023-03-29T08:08:32.017Z,25.89
2023-03-29T08:11:00.473Z,26.02
2023-03-29T08:13:30.841Z,26.46
2023-03-29T08:15:59.195Z,26.42
2023-03-29T08:18:27.777Z,27.07
2023-03-29T08:20:56.189Z,27.61
2023-03-29T08:23:24.688Z,27.87
2023-03-29T08:25:53.747Z,28.23
2023-03-29T08:28:22.419Z,28.47
2023-03-29T08:30:52.906Z,29.14
2023-03-29T08:33:22.411Z,28.89
2023-03-29T08:35:51.519Z,28.38
2023-03-29T08:38:21.770Z,28.26
2023-03-29T08:40:50.766Z,29.09
2023-03-29T08:43:51.743Z,31.17
2023-03-29T08:46:34.503Z,31.66
2023-03-29T08:49:04.718Z,31.41
2023-03-29T08:51:34.380Z,31.08
2023-03-29T08:54:05.545Z,30.31
2023-03-29T08:56:36.754Z,30.56
2023-03-29T08:59:08.063Z,31.22
2023-03-29T09:01:38.543Z,31.87
2023-03-29T09:04:10.147Z,31.94
2023-03-29T09:06:40.791Z,31.53
2023-03-29T09:09:11.707Z,32.04
2023-03-29T09:11:48.634Z,31.56
2023-03-29T09:14:38.052Z,32.58
2023-03-29T09:17:16.985Z,32.35
2023-03-29T09:19:51.018Z,31.94
2023-03-29T09:22:24.461Z,31.96
2023-03-29T09:24:59.715Z,32.34
2023-03-29T09:27:31.616Z,33.19
2023-03-29T09:30:08.590Z,34.39
2023-03-29T09:32:42.409Z,35.20
2023-03-29T09:35:18.740Z,35.93
2023-03-29T09:37:49.091Z,36.11
2023-03-29T09:40:21.084Z,36.58
2023-03-29T09:42:51.208Z,36.68
2023-03-29T09:45:19.962Z,36.79
2023-03-29T09:47:51.976Z,38.03
2023-03-29T09:50:30.761Z,39.35
2023-03-29T09:52:59.973Z,39.77
2023-03-29T09:55:31.275Z,39.39
2023-03-29T09:58:02.250Z,39.17
2023-03-29T10:00:31.039Z,38.71
2023-03-29T10:03:01.080Z,38.63
2023-03-29T10:05:32.649Z,38.10
2023-03-29T10:08:02.431Z,38.66
2023-03-29T10:10:33.110Z,39.37
2023-03-29T10:13:01.812Z,39.98
2023-03-29T10:15:31.651Z,38.63
2023-03-29T10:18:03.620Z,38.57
2023-03-29T10:20:32.449Z,37.58
2023-03-29T10:23:00.893Z,37.90
2023-03-29T10:25:31.616Z,38.10
2023-03-29T10:28:05.612Z,38.46
2023-03-29T10:30:37.335Z,38.69
2023-03-29T10:33:09.264Z,38.73
2023-03-29T10:35:41.600Z,38.78
2023-03-29T10:38:13.457Z,39.20
2023-03-29T10:40:45.131Z,40.01
2023-03-29T10:43:15.925Z,40.34
2023-03-29T10:45:44.945Z,39.29
2023-03-29T10:48:16.542Z,38.21
2023-03-29T10:50:50.423Z,37.07
2023-03-29T10:53:24.271Z,35.96
2023-03-29T10:56:02.332Z,35.65
2023-03-29T10:58:40.866Z,36.56
2023-03-29T11:01:13.497Z,37.32
2023-03-29T11:04:09.374Z,38.31
2023-03-29T11:06:42.232Z,38.30
2023-03-29T11:09:21.487Z,37.88
2023-03-29T11:12:15.099Z,38.21
2023-03-29T11:14:54.528Z,39.37
2023-03-29T11:17:33.805Z,39.97
2023-03-29T11:20:12.700Z,39.53
2023-03-29T11:22:48.660Z,38.54
2023-03-29T11:25:29.603Z,38.16
2023-03-29T11:28:09.831Z,37.65
2023-03-29T11:30:44.573Z,37.14
2023-03-29T11:33:33.897Z,37.37
2023-03-29T11:36:13.399Z,37.07
2023-03-29T11:38:48.124Z,36.29
2023-03-29T11:41:21.205Z,34.73
2023-03-29T11:43:53.689Z,34.09
2023-03-29T11:46:27.366Z,33.37
2023-03-29T11:49:00.313Z,31.56
2023-03-29T11:51:33.977Z,30.10
2023-03-29T11:54:05.067Z,28.93
2023-03-29T11:56:37.972Z,27.71
2023-03-29T11:59:13.304Z,26.32
2023-03-29T12:01:44.878Z,24.72
2023-03-29T12:04:17.894Z,23.55
2023-03-29T12:06:52.518Z,22.51
2023-03-29T12:09:30.241Z,22.42
2023-03-29T12:12:05.278Z,22.40
2023-03-29T12:14:45.129Z,22.08
2023-03-29T12:17:16.837Z,21.56
2023-03-29T12:19:50.574Z,21.34
2023-03-29T12:22:20.999Z,21.23
2023-03-29T12:24:53.574Z,20.89
2023-03-29T12:27:26.786Z,20.76
2023-03-29T12:30:23.075Z,20.78
2023-03-29T12:33:07.429Z,20.64
2023-03-29T12:35:43.391Z,20.67
2023-03-29T12:38:18.112Z,20.43
2023-03-29T12:40:48.520Z,19.83
2023-03-29T12:43:22.412Z,19.79
2023-03-29T12:45:56.269Z,19.39
2023-03-29T12:48:26.959Z,19.24
2023-03-29T12:51:02.035Z,19.22
2023-03-29T12:53:35.820Z,19.36
2023-03-29T12:56:14.571Z,19.74
2023-03-29T12:58:51.874Z,19.54
2023-03-29T13:01:27.816Z,19.38
2023-03-29T13:04:15.755Z,19.60
2023-03-29T13:07:03.076Z,19.62
2023-03-29T13:09:51.431Z,19.80
2023-03-29T13:12:26.822Z,19.42
2023-03-29T13:14:57.520Z,19.16
2023-03-29T13:17:29.129Z,19.01
2023-03-29T13:20:15.750Z,19.19
2023-03-29T13:22:53.325Z,19.10
2023-03-29T13:25:36.642Z,19.10
2023-03-29T13:28:10.565Z,19.08
2023-03-29T13:30:47.664Z,19.13
2023-03-29T13:33:27.360Z,19.25
2023-03-29T13:36:05.297Z,19.29
2023-03-29T13:38:46.419Z,19.34
2023-03-29T13:41:29.234Z,19.38
2023-03-29T13:43:58.904Z,18.61
2023-03-29T13:46:41.092Z,18.90
2023-03-29T13:49:21.002Z,18.53
2023-03-29T13:52:12.676Z,18.45
2023-03-29T13:54:44.226Z,18.28
2023-03-29T13:57:18.533Z,18.42
2023-03-29T13:59:55.892Z,18.36
2023-03-29T14:02:35.216Z,18.15
2023-03-29T14:05:04.849Z,17.56
2023-03-29T14:07:35.555Z,17.61
2023-03-29T14:10:07.101Z,17.48
2023-03-29T14:12:41.720Z,17.29
2023-03-29T14:15:21.740Z,17.73
2023-03-29T14:18:01.990Z,16.93
2023-03-29T14:20:35.157Z,17.16
2023-03-29T14:23:11.067Z,16.99
2023-03-29T14:25:41.657Z,16.50
2023-03-29T14:28:26.061Z,16.44
2023-03-29T14:30:58.087Z,15.87
2023-03-29T14:33:27.783Z,15.50
2023-03-29T14:36:01.123Z,15.92
2023-03-29T14:38:30.523Z,15.50
2023-03-29T14:41:01.422Z,15.67
2023-03-29T14:43:35.764Z,15.67
2023-03-29T14:46:06.639Z,15.52
2023-03-29T14:48:36.309Z,15.27
2023-03-29T14:51:08.162Z,15.21
2023-03-29T14:53:38.221Z,15.12
2023-03-29T14:56:08.381Z,15.44
2023-03-29T14:58:38.636Z,15.69
2023-03-29T15:01:09.226Z,15.50
2023-03-29T15:03:50.740Z,15.40
2023-03-29T15:06:20.075Z,14.66
2023-03-29T15:09:02.053Z,14.99
2023-03-29T15:11:34.554Z,14.77
2023-03-29T15:14:06.901Z,14.98
2023-03-29T15:16:39.222Z,15.06
2023-03-29T15:19:08.183Z,14.78
2023-03-29T15:21:37.084Z,14.53
2023-03-29T15:24:06.729Z,14.55
2023-03-29T15:26:37.666Z,14.55
2023-03-29T15:29:13.424Z,14.59
2023-03-29T15:31:43.493Z,13.94
2023-03-29T15:34:13.762Z,14.25
2023-03-29T15:36:43.512Z,13.95
2023-03-29T15:39:13.507Z,14.36
2023-03-29T15:41:42.447Z,14.01
2023-03-29T15:44:12.861Z,14.42
2023-03-29T15:46:42.034Z,13.84
2023-03-29T15:49:12.540Z,14.13
2023-03-29T15:51:42.265Z,14.08
2023-03-29T15:54:13.014Z,13.88
2023-03-29T15:56:47.815Z,13.98
2023-03-29T15:59:22.049Z,13.52
2023-03-29T16:01:54.865Z,13.41
2023-03-29T16:04:23.885Z,13.51
2023-03-29T16:06:55.455Z,13.71
2023-03-29T16:09:25.563Z,13.05
2023-03-29T16:11:54.340Z,12.86
2023-03-29T16:14:27.295Z,13.49
2023-03-29T16:16:58.329Z,13.31
2023-03-29T16:19:28.291Z,13.27
2023-03-29T16:21:57.523Z,13.09
2023-03-29T16:24:28.203Z,13.15
2023-03-29T16:27:01.632Z,13.14
2023-03-29T16:29:31.935Z,13.25
2023-03-29T16:32:00.992Z,12.83
2023-03-29T16:34:30.314Z,12.85
2023-03-29T16:36:59.475Z,12.76
2023-03-29T16:39:28.493Z,12.63
2023-03-29T16:41:57.583Z,12.63
2023-03-29T16:44:28.469Z,12.58
2023-03-29T16:46:59.279Z,12.96
2023-03-29T16:49:32.704Z,12.99
2023-03-29T16:52:01.854Z,12.51
2023-03-29T16:54:33.744Z,12.29
2023-03-29T16:57:02.576Z,12.31
2023-03-29T16:59:31.464Z,12.33
2023-03-29T17:02:01.831Z,12.59
2023-03-29T17:04:30.423Z,12.21
2023-03-29T17:07:00.541Z,12.31
2023-03-29T17:09:30.007Z,12.14
2023-03-29T17:11:58.941Z,12.10
2023-03-29T17:14:27.542Z,12.11
2023-03-29T17:16:59.544Z,12.49
2023-03-29T17:19:29.596Z,12.39
2023-03-29T17:21:58.245Z,12.03
2023-03-29T17:24:26.688Z,11.89
2023-03-29T17:26:55.558Z,11.94
2023-03-29T17:29:24.074Z,11.84
2023-03-29T17:31:53.881Z,11.88
2023-03-29T17:34:22.604Z,11.89
2023-03-29T17:36:56.492Z,12.24
2023-03-29T17:39:27.433Z,11.85
2023-03-29T17:41:56.336Z,11.78
2023-03-29T17:44:25.037Z,11.74
2023-03-29T17:46:56.926Z,12.16
2023-03-29T17:49:25.556Z,11.58
2023-03-29T17:51:55.894Z,11.87
2023-03-29T17:54:24.617Z,11.27
2023-03-29T17:56:53.393Z,11.30
2023-03-29T17:59:21.929Z,11.22
2023-03-29T18:01:51.446Z,11.21
2023-03-29T18:04:20.321Z,11.24
2023-03-29T18:06:49.280Z,11.02
2023-03-29T18:09:19.356Z,11.47
2023-03-29T18:11:48.113Z,11.08
2023-03-29T18:14:16.639Z,11.12
2023-03-29T18:16:45.645Z,11.06
2023-03-29T18:19:14.125Z,11.01
2023-03-29T18:21:43.296Z,10.96
2023-03-29T18:24:11.811Z,10.99
2023-03-29T18:26:42.049Z,11.13
2023-03-29T18:29:10.845Z,10.71
2023-03-29T18:31:40.041Z,10.71
2023-03-29T18:34:08.451Z,10.64
2023-03-29T18:36:37.206Z,10.60
2023-03-29T18:39:06.193Z,10.58
2023-03-29T18:41:35.753Z,10.72
2023-03-29T18:44:07.773Z,10.94
2023-03-29T18:46:36.589Z,10.52
2023-03-29T18:49:04.945Z,10.51
2023-03-29T18:51:34.384Z,10.34
2023-03-29T18:54:04.327Z,10.48
2023-03-29T18:56:33.059Z,10.40
2023-03-29T18:59:05.192Z,10.26
2023-03-29T19:01:35.190Z,10.65
2023-03-29T19:04:03.564Z,10.26
2023-03-29T19:06:32.141Z,9.99
2023-03-29T19:09:02.134Z,10.05
2023-03-29T19:11:30.953Z,10.09
2023-03-29T19:14:01.898Z,10.09
2023-03-29T19:16:30.608Z,9.93
2023-03-29T19:19:00.362Z,10.51
2023-03-29T19:21:31.730Z,10.01
2023-03-29T19:24:01.089Z,10.04
2023-03-29T19:26:29.809Z,9.80
2023-03-29T19:28:58.268Z,9.85
2023-03-29T19:31:27.687Z,9.79
2023-03-29T19:33:56.288Z,9.70
2023-03-29T19:36:26.305Z,10.13
2023-03-29T19:38:55.799Z,9.70
2023-03-29T19:41:24.608Z,9.63
2023-03-29T19:43:52.903Z,9.49
2023-03-29T19:46:21.566Z,9.71
2023-03-29T19:48:51.854Z,9.57
2023-03-29T19:51:20.696Z,9.54
2023-03-29T19:53:50.370Z,9.77
2023-03-29T19:56:19.052Z,9.49
2023-03-29T19:58:48.279Z,9.26
2023-03-29T20:01:21.057Z,9.35
2023-03-29T20:03:50.068Z,9.49
2023-03-29T20:06:19.668Z,9.40
2023-03-29T20:08:48.224Z,9.29
2023-03-29T20:11:23.774Z,9.50
2023-03-29T20:13:52.140Z,9.24
2023-03-29T20:16:24.442Z,9.24
2023-03-29T20:18:54.140Z,9.01
2023-03-29T20:21:22.901Z,8.95
2023-03-29T20:23:51.413Z,8.85
2023-03-29T20:26:21.531Z,9.36
2023-03-29T20:28:50.152Z,9.11
2023-03-29T20:31:18.766Z,9.06
2023-03-29T20:33:47.070Z,9.06
2023-03-29T20:36:18.691Z,9.15
2023-03-29T20:38:46.879Z,10.17
2023-03-29T20:41:15.358Z,9.14
2023-03-29T20:43:46.410Z,9.56
2023-03-29T20:46:18.531Z,10.13
2023-03-29T20:48:53.465Z,9.20
2023-03-29T20:51:22.764Z,9.15
2023-03-29T20:53:51.186Z,9.12
2023-03-29T20:56:20.934Z,8.95
2023-03-29T20:58:50.814Z,9.34
2023-03-29T21:01:21.813Z,8.92
2023-03-29T21:03:50.631Z,9.06
2023-03-29T21:06:19.348Z,9.03
2023-03-29T21:08:48.450Z,9.25
2023-03-29T21:11:17.015Z,9.07
2023-03-29T21:13:45.221Z,8.99
2023-03-29T21:16:15.774Z,9.52
2023-03-29T21:18:44.156Z,9.03
2023-03-29T21:21:13.192Z,9.15
2023-03-29T21:23:41.501Z,9.05
2023-03-29T21:26:10.134Z,8.86
2023-03-29T21:28:38.762Z,8.87
2023-03-29T21:31:08.151Z,9.11
2023-03-29T21:33:38.038Z,9.47
2023-03-29T21:36:08.332Z,9.25
2023-03-29T21:38:36.849Z,9.30
2023-03-29T21:41:06.920Z,9.27
2023-03-29T21:43:35.595Z,9.34
2023-03-29T21:46:04.511Z,9.25
2023-03-29T21:48:33.459Z,9.50
2023-03-29T21:51:03.786Z,9.72
2023-03-29T21:53:32.231Z,9.25
2023-03-29T21:56:00.726Z,9.27
2023-03-29T21:58:29.039Z,9.36
2023-03-29T22:00:57.904Z,9.43
2023-03-29T22:03:26.308Z,9.47
2023-03-29T22:06:03.694Z,10.02
2023-03-29T22:08:32.196Z,9.55
2023-03-29T22:11:08.204Z,10.00
2023-03-29T22:13:36.835Z,9.40
2023-03-29T22:16:06.365Z,9.56
2023-03-29T22:18:43.817Z,9.78
2023-03-29T22:21:15.723Z,9.93
2023-03-29T22:23:44.860Z,9.65
2023-03-29T22:26:15.336Z,9.81
2023-03-29T22:28:43.724Z,9.58
2023-03-29T22:31:14.752Z,9.89
2023-03-29T22:33:43.366Z,9.60
2023-03-29T22:36:18.295Z,9.86
2023-03-29T22:38:47.540Z,9.61
2023-03-29T22:41:17.286Z,9.44
2023-03-29T22:43:45.656Z,9.27
2023-03-29T22:46:15.244Z,9.48
2023-03-29T22:48:43.465Z,9.27
2023-03-29T22:51:12.173Z,9.28
2023-03-29T22:53:41.979Z,9.61
2023-03-29T22:56:10.701Z,9.48
2023-03-29T22:58:40.404Z,9.34
2023-03-29T23:01:09.391Z,9.52
2023-03-29T23:03:38.054Z,9.27
2023-03-29T23:06:07.250Z,9.41
2023-03-29T23:08:36.533Z,9.53
2023-03-29T23:11:07.515Z,9.85
2023-03-29T23:13:36.261Z,9.57
2023-03-29T23:16:05.424Z,9.62
2023-03-29T23:18:37.551Z,9.83
2023-03-29T23:21:09.062Z,9.64
2023-03-29T23:23:37.544Z,9.67
2023-03-29T23:26:10.463Z,10.17
2023-03-29T23:28:39.045Z,9.78
2023-03-29T23:31:10.656Z,9.92
2023-03-29T23:33:40.427Z,10.85
2023-03-29T23:36:11.102Z,10.18
2023-03-29T23:38:40.711Z,10.30
2023-03-29T23:41:12.906Z,10.50
2023-03-29T23:43:43.933Z,10.33
2023-03-29T23:46:14.180Z,10.31
2023-03-29T23:48:46.123Z,10.67
2023-03-29T23:51:14.713Z,10.07
2023-03-29T23:53:43.027Z,10.25
2023-03-29T23:56:13.368Z,10.66
2023-03-29T23:58:41.565Z,10.33
